sensor_id;sensor_type;location;lat;lon;timestamp;P1;durP1;ratioP1;P2;durP2;ratioP2
15102;SDS011;7652;53.584;9.998;2023-06-19T00:01:17;5.23;;;4.73;;
15102;SDS011;7652;53.584;9.998;2023-06-19T00:04:39;5.07;;;4.57;;
15102;SDS011;7652;53.584;9.998;2023-06-19T00:08:01;5.10;;;4.70;;
15102;SDS011;7652;53.584;9.998;2023-06-19T00:11:26;4.97;;;4.47;;
15102;SDS011;7652;53.584;9.998;2023-06-19T00:14:47;5.43;;;4.90;;
15102;SDS011;7652;53.584;9.998;2023-06-19T00:18:08;4.73;;;4.33;;
15102;SDS011;7652;53.584;9.998;2023-06-19T00:21:31;4.70;;;4.30;;
15102;SDS011;7652;53.584;9.998;2023-06-19T00:24:54;4.40;;;4.00;;
15102;SDS011;7652;53.584;9.998;2023-06-19T00:28:15;6.47;;;4.67;;
15102;SDS011;7652;53.584;9.998;2023-06-19T00:31:39;5.27;;;4.83;;
15102;SDS011;7652;53.584;9.998;2023-06-19T00:35:01;4.70;;;4.33;;
15102;SDS011;7652;53.584;9.998;2023-06-19T00:38:23;4.73;;;4.33;;
15102;SDS011;7652;53.584;9.998;2023-06-19T00:41:46;5.00;;;4.60;;
15102;SDS011;7652;53.584;9.998;2023-06-19T00:45:08;6.37;;;4.87;;
15102;SDS011;7652;53.584;9.998;2023-06-19T00:48:30;5.90;;;5.10;;
15102;SDS011;7652;53.584;9.998;2023-06-19T00:51:53;4.90;;;4.53;;
15102;SDS011;7652;53.584;9.998;2023-06-19T00:55:15;4.60;;;4.30;;
15102;SDS011;7652;53.584;9.998;2023-06-19T00:58:38;5.17;;;4.77;;
15102;SDS011;7652;53.584;9.998;2023-06-19T01:01:59;5.17;;;4.77;;
15102;SDS011;7652;53.584;9.998;2023-06-19T01:05:23;5.37;;;4.90;;
15102;SDS011;7652;53.584;9.998;2023-06-19T01:08:47;5.30;;;4.90;;
15102;SDS011;7652;53.584;9.998;2023-06-19T01:12:15;5.40;;;4.90;;
15102;SDS011;7652;53.584;9.998;2023-06-19T01:15:40;5.00;;;4.50;;
15102;SDS011;7652;53.584;9.998;2023-06-19T01:19:03;4.63;;;4.33;;
15102;SDS011;7652;53.584;9.998;2023-06-19T01:22:27;5.00;;;4.60;;
15102;SDS011;7652;53.584;9.998;2023-06-19T01:25:49;5.73;;;4.93;;
15102;SDS011;7652;53.584;9.998;2023-06-19T01:29:11;5.33;;;4.90;;
15102;SDS011;7652;53.584;9.998;2023-06-19T01:32:36;5.67;;;4.73;;
15102;SDS011;7652;53.584;9.998;2023-06-19T01:36:04;6.23;;;5.13;;
15102;SDS011;7652;53.584;9.998;2023-06-19T01:39:28;6.00;;;5.50;;
15102;SDS011;7652;53.584;9.998;2023-06-19T01:42:50;5.50;;;4.53;;
15102;SDS011;7652;53.584;9.998;2023-06-19T01:46:13;5.80;;;5.20;;
15102;SDS011;7652;53.584;9.998;2023-06-19T01:49:34;5.17;;;4.77;;
15102;SDS011;7652;53.584;9.998;2023-06-19T01:52:56;4.93;;;4.50;;
15102;SDS011;7652;53.584;9.998;2023-06-19T01:56:20;5.60;;;5.10;;
15102;SDS011;7652;53.584;9.998;2023-06-19T01:59:44;5.40;;;4.73;;
15102;SDS011;7652;53.584;9.998;2023-06-19T02:03:05;6.17;;;5.37;;
15102;SDS011;7652;53.584;9.998;2023-06-19T02:06:29;5.63;;;5.13;;
15102;SDS011;7652;53.584;9.998;2023-06-19T02:09:51;5.67;;;5.17;;
15102;SDS011;7652;53.584;9.998;2023-06-19T02:13:14;7.07;;;5.53;;
15102;SDS011;7652;53.584;9.998;2023-06-19T02:16:35;5.90;;;5.43;;
15102;SDS011;7652;53.584;9.998;2023-06-19T02:19:57;5.33;;;4.93;;
15102;SDS011;7652;53.584;9.998;2023-06-19T02:23:19;6.20;;;5.60;;
15102;SDS011;7652;53.584;9.998;2023-06-19T02:26:40;6.60;;;5.90;;
15102;SDS011;7652;53.584;9.998;2023-06-19T02:30:05;6.33;;;5.83;;
15102;SDS011;7652;53.584;9.998;2023-06-19T02:33:28;5.80;;;5.30;;
15102;SDS011;7652;53.584;9.998;2023-06-19T02:36:49;6.10;;;5.60;;
15102;SDS011;7652;53.584;9.998;2023-06-19T02:40:11;6.13;;;5.40;;
15102;SDS011;7652;53.584;9.998;2023-06-19T02:43:34;6.77;;;5.93;;
15102;SDS011;7652;53.584;9.998;2023-06-19T02:46:57;6.43;;;5.80;;
15102;SDS011;7652;53.584;9.998;2023-06-19T02:50:19;7.20;;;5.50;;
15102;SDS011;7652;53.584;9.998;2023-06-19T02:53:41;6.30;;;5.70;;
15102;SDS011;7652;53.584;9.998;2023-06-19T02:57:04;5.53;;;5.13;;
15102;SDS011;7652;53.584;9.998;2023-06-19T03:00:26;6.40;;;5.80;;
15102;SDS011;7652;53.584;9.998;2023-06-19T03:03:50;6.23;;;5.73;;
15102;SDS011;7652;53.584;9.998;2023-06-19T03:07:12;6.00;;;5.50;;
15102;SDS011;7652;53.584;9.998;2023-06-19T03:10:34;6.60;;;6.07;;
15102;SDS011;7652;53.584;9.998;2023-06-19T03:13:56;6.17;;;5.67;;
15102;SDS011;7652;53.584;9.998;2023-06-19T03:17:17;5.77;;;5.27;;
15102;SDS011;7652;53.584;9.998;2023-06-19T03:20:40;6.50;;;5.93;;
15102;SDS011;7652;53.584;9.998;2023-06-19T03:24:02;7.07;;;6.43;;
15102;SDS011;7652;53.584;9.998;2023-06-19T03:27:23;6.23;;;5.77;;
15102;SDS011;7652;53.584;9.998;2023-06-19T03:30:46;6.03;;;5.53;;
15102;SDS011;7652;53.584;9.998;2023-06-19T03:34:07;6.90;;;6.20;;
15102;SDS011;7652;53.584;9.998;2023-06-19T03:37:30;6.57;;;5.97;;
15102;SDS011;7652;53.584;9.998;2023-06-19T03:40:52;6.10;;;5.60;;
15102;SDS011;7652;53.584;9.998;2023-06-19T03:44:14;6.57;;;5.97;;
15102;SDS011;7652;53.584;9.998;2023-06-19T03:47:35;6.93;;;6.30;;
15102;SDS011;7652;53.584;9.998;2023-06-19T03:50:57;6.60;;;5.93;;
15102;SDS011;7652;53.584;9.998;2023-06-19T03:54:20;6.33;;;5.83;;
15102;SDS011;7652;53.584;9.998;2023-06-19T03:57:42;6.23;;;5.70;;
15102;SDS011;7652;53.584;9.998;2023-06-19T04:01:03;6.77;;;6.17;;
15102;SDS011;7652;53.584;9.998;2023-06-19T04:04:25;6.77;;;6.17;;
15102;SDS011;7652;53.584;9.998;2023-06-19T04:07:47;7.47;;;6.30;;
15102;SDS011;7652;53.584;9.998;2023-06-19T04:11:10;6.90;;;6.30;;
15102;SDS011;7652;53.584;9.998;2023-06-19T04:14:32;6.70;;;6.10;;
15102;SDS011;7652;53.584;9.998;2023-06-19T04:17:53;7.10;;;6.50;;
15102;SDS011;7652;53.584;9.998;2023-06-19T04:21:15;7.17;;;6.57;;
15102;SDS011;7652;53.584;9.998;2023-06-19T04:24:36;7.03;;;6.43;;
15102;SDS011;7652;53.584;9.998;2023-06-19T04:27:59;7.00;;;5.80;;
15102;SDS011;7652;53.584;9.998;2023-06-19T04:31:23;7.00;;;6.40;;
15102;SDS011;7652;53.584;9.998;2023-06-19T04:34:46;6.70;;;6.07;;
15102;SDS011;7652;53.584;9.998;2023-06-19T04:38:08;6.47;;;5.90;;
15102;SDS011;7652;53.584;9.998;2023-06-19T04:41:30;7.37;;;6.60;;
15102;SDS011;7652;53.584;9.998;2023-06-19T04:44:53;6.90;;;6.27;;
15102;SDS011;7652;53.584;9.998;2023-06-19T04:48:14;6.37;;;5.87;;
15102;SDS011;7652;53.584;9.998;2023-06-19T04:51:36;6.33;;;5.80;;
15102;SDS011;7652;53.584;9.998;2023-06-19T04:54:57;6.87;;;6.37;;
15102;SDS011;7652;53.584;9.998;2023-06-19T04:58:18;6.50;;;6.00;;
15102;SDS011;7652;53.584;9.998;2023-06-19T05:01:42;7.97;;;7.13;;
15102;SDS011;7652;53.584;9.998;2023-06-19T05:05:05;7.30;;;6.60;;
15102;SDS011;7652;53.584;9.998;2023-06-19T05:08:27;6.70;;;6.10;;
15102;SDS011;7652;53.584;9.998;2023-06-19T05:11:48;7.17;;;6.47;;
15102;SDS011;7652;53.584;9.998;2023-06-19T05:15:10;7.40;;;6.73;;
15102;SDS011;7652;53.584;9.998;2023-06-19T05:18:33;7.43;;;6.73;;
15102;SDS011;7652;53.584;9.998;2023-06-19T05:21:54;7.00;;;6.37;;
15102;SDS011;7652;53.584;9.998;2023-06-19T05:25:16;9.43;;;6.83;;
15102;SDS011;7652;53.584;9.998;2023-06-19T05:28:37;7.27;;;6.43;;
15102;SDS011;7652;53.584;9.998;2023-06-19T05:31:59;6.77;;;6.23;;
15102;SDS011;7652;53.584;9.998;2023-06-19T05:35:22;6.90;;;6.33;;
15102;SDS011;7652;53.584;9.998;2023-06-19T05:38:43;9.07;;;7.00;;
15102;SDS011;7652;53.584;9.998;2023-06-19T05:42:05;7.77;;;7.07;;
15102;SDS011;7652;53.584;9.998;2023-06-19T05:45:27;6.60;;;6.00;;
15102;SDS011;7652;53.584;9.998;2023-06-19T05:48:49;7.30;;;6.63;;
15102;SDS011;7652;53.584;9.998;2023-06-19T05:52:11;7.80;;;7.10;;
15102;SDS011;7652;53.584;9.998;2023-06-19T05:55:33;7.63;;;6.70;;
15102;SDS011;7652;53.584;9.998;2023-06-19T05:58:55;7.57;;;6.87;;
15102;SDS011;7652;53.584;9.998;2023-06-19T06:02:20;7.63;;;6.93;;
15102;SDS011;7652;53.584;9.998;2023-06-19T06:05:41;9.17;;;6.73;;
15102;SDS011;7652;53.584;9.998;2023-06-19T06:09:04;7.73;;;7.03;;
15102;SDS011;7652;53.584;9.998;2023-06-19T06:12:28;7.43;;;6.73;;
15102;SDS011;7652;53.584;9.998;2023-06-19T06:15:50;7.77;;;6.40;;
15102;SDS011;7652;53.584;9.998;2023-06-19T06:19:11;6.87;;;6.27;;
15102;SDS011;7652;53.584;9.998;2023-06-19T06:22:33;7.87;;;7.07;;
15102;SDS011;7652;53.584;9.998;2023-06-19T06:25:55;8.30;;;7.50;;
15102;SDS011;7652;53.584;9.998;2023-06-19T06:29:22;8.80;;;7.40;;
15102;SDS011;7652;53.584;9.998;2023-06-19T06:32:43;8.57;;;7.87;;
15102;SDS011;7652;53.584;9.998;2023-06-19T06:36:05;7.10;;;6.50;;
15102;SDS011;7652;53.584;9.998;2023-06-19T06:39:28;9.40;;;8.50;;
15102;SDS011;7652;53.584;9.998;2023-06-19T06:42:51;11.47;;;8.07;;
15102;SDS011;7652;53.584;9.998;2023-06-19T06:46:13;9.97;;;7.97;;
15102;SDS011;7652;53.584;9.998;2023-06-19T06:49:35;8.87;;;8.10;;
15102;SDS011;7652;53.584;9.998;2023-06-19T06:52:57;10.27;;;8.67;;
15102;SDS011;7652;53.584;9.998;2023-06-19T06:56:18;9.30;;;8.50;;
15102;SDS011;7652;53.584;9.998;2023-06-19T06:59:41;10.20;;;8.93;;
15102;SDS011;7652;53.584;9.998;2023-06-19T07:03:02;8.87;;;8.07;;
15102;SDS011;7652;53.584;9.998;2023-06-19T07:06:24;8.97;;;7.97;;
15102;SDS011;7652;53.584;9.998;2023-06-19T07:09:46;12.13;;;8.30;;
15102;SDS011;7652;53.584;9.998;2023-06-19T07:13:07;8.93;;;8.00;;
15102;SDS011;7652;53.584;9.998;2023-06-19T07:16:30;8.70;;;7.90;;
15102;SDS011;7652;53.584;9.998;2023-06-19T07:19:52;9.13;;;8.30;;
15102;SDS011;7652;53.584;9.998;2023-06-19T07:23:14;9.43;;;8.53;;
15102;SDS011;7652;53.584;9.998;2023-06-19T07:26:35;9.20;;;8.30;;
15102;SDS011;7652;53.584;9.998;2023-06-19T07:29:57;8.87;;;8.00;;
15102;SDS011;7652;53.584;9.998;2023-06-19T07:33:19;8.30;;;7.50;;
15102;SDS011;7652;53.584;9.998;2023-06-19T07:36:41;9.33;;;8.33;;
15102;SDS011;7652;53.584;9.998;2023-06-19T07:40:03;8.77;;;7.93;;
15102;SDS011;7652;53.584;9.998;2023-06-19T07:43:25;8.80;;;7.83;;
15102;SDS011;7652;53.584;9.998;2023-06-19T07:46:47;8.73;;;7.93;;
15102;SDS011;7652;53.584;9.998;2023-06-19T07:50:10;8.33;;;7.53;;
15102;SDS011;7652;53.584;9.998;2023-06-19T07:53:31;8.43;;;7.63;;
15102;SDS011;7652;53.584;9.998;2023-06-19T07:56:53;8.90;;;8.10;;
15102;SDS011;7652;53.584;9.998;2023-06-19T08:00:14;9.17;;;8.13;;
15102;SDS011;7652;53.584;9.998;2023-06-19T08:03:36;8.37;;;7.53;;
15102;SDS011;7652;53.584;9.998;2023-06-19T08:06:59;8.00;;;7.30;;
15102;SDS011;7652;53.584;9.998;2023-06-19T08:10:21;8.40;;;7.57;;
15102;SDS011;7652;53.584;9.998;2023-06-19T08:13:43;8.70;;;8.00;;
15102;SDS011;7652;53.584;9.998;2023-06-19T08:17:05;8.60;;;7.80;;
15102;SDS011;7652;53.584;9.998;2023-06-19T08:20:27;9.60;;;8.67;;
15102;SDS011;7652;53.584;9.998;2023-06-19T08:23:50;8.57;;;7.77;;
15102;SDS011;7652;53.584;9.998;2023-06-19T08:27:11;8.87;;;8.10;;
15102;SDS011;7652;53.584;9.998;2023-06-19T08:30:33;7.97;;;7.27;;
15102;SDS011;7652;53.584;9.998;2023-06-19T08:33:54;8.23;;;7.43;;
15102;SDS011;7652;53.584;9.998;2023-06-19T08:37:17;8.90;;;8.10;;
15102;SDS011;7652;53.584;9.998;2023-06-19T08:40:41;8.30;;;7.40;;
15102;SDS011;7652;53.584;9.998;2023-06-19T08:44:03;10.03;;;7.63;;
15102;SDS011;7652;53.584;9.998;2023-06-19T08:47:28;9.53;;;8.27;;
15102;SDS011;7652;53.584;9.998;2023-06-19T08:50:50;9.57;;;8.63;;
15102;SDS011;7652;53.584;9.998;2023-06-19T08:54:11;9.07;;;7.93;;
15102;SDS011;7652;53.584;9.998;2023-06-19T08:57:35;8.87;;;8.00;;
15102;SDS011;7652;53.584;9.998;2023-06-19T09:00:58;9.67;;;8.87;;
15102;SDS011;7652;53.584;9.998;2023-06-19T09:04:20;8.87;;;7.93;;
15102;SDS011;7652;53.584;9.998;2023-06-19T09:07:43;9.07;;;8.27;;
15102;SDS011;7652;53.584;9.998;2023-06-19T09:11:05;9.00;;;8.20;;
15102;SDS011;7652;53.584;9.998;2023-06-19T09:14:34;9.10;;;8.30;;
15102;SDS011;7652;53.584;9.998;2023-06-19T09:18:01;9.37;;;8.60;;
15102;SDS011;7652;53.584;9.998;2023-06-19T09:21:23;10.13;;;7.97;;
15102;SDS011;7652;53.584;9.998;2023-06-19T09:24:45;9.60;;;8.77;;
15102;SDS011;7652;53.584;9.998;2023-06-19T09:28:06;9.40;;;8.57;;
15102;SDS011;7652;53.584;9.998;2023-06-19T09:31:39;9.30;;;8.40;;
15102;SDS011;7652;53.584;9.998;2023-06-19T09:35:01;11.20;;;9.80;;
15102;SDS011;7652;53.584;9.998;2023-06-19T09:38:25;9.23;;;8.10;;
15102;SDS011;7652;53.584;9.998;2023-06-19T09:41:47;9.03;;;8.23;;
15102;SDS011;7652;53.584;9.998;2023-06-19T09:45:12;9.37;;;8.47;;
15102;SDS011;7652;53.584;9.998;2023-06-19T09:48:39;9.30;;;8.47;;
15102;SDS011;7652;53.584;9.998;2023-06-19T09:52:03;9.30;;;8.60;;
15102;SDS011;7652;53.584;9.998;2023-06-19T09:55:25;10.20;;;8.63;;
15102;SDS011;7652;53.584;9.998;2023-06-19T09:58:51;9.37;;;8.57;;
15102;SDS011;7652;53.584;9.998;2023-06-19T10:02:15;10.17;;;8.40;;
15102;SDS011;7652;53.584;9.998;2023-06-19T10:05:39;9.97;;;9.07;;
15102;SDS011;7652;53.584;9.998;2023-06-19T10:09:08;9.00;;;8.30;;
15102;SDS011;7652;53.584;9.998;2023-06-19T10:12:34;10.13;;;9.10;;
15102;SDS011;7652;53.584;9.998;2023-06-19T10:15:56;8.83;;;8.03;;
15102;SDS011;7652;53.584;9.998;2023-06-19T10:19:20;9.40;;;8.63;;
15102;SDS011;7652;53.584;9.998;2023-06-19T10:22:51;10.30;;;9.30;;
15102;SDS011;7652;53.584;9.998;2023-06-19T10:26:15;9.27;;;8.47;;
15102;SDS011;7652;53.584;9.998;2023-06-19T10:29:40;9.70;;;8.70;;
15102;SDS011;7652;53.584;9.998;2023-06-19T10:33:22;9.27;;;8.37;;
15102;SDS011;7652;53.584;9.998;2023-06-19T10:36:44;9.17;;;8.27;;
15102;SDS011;7652;53.584;9.998;2023-06-19T10:40:07;9.67;;;8.77;;
15102;SDS011;7652;53.584;9.998;2023-06-19T10:43:30;9.13;;;8.43;;
15102;SDS011;7652;53.584;9.998;2023-06-19T10:46:53;9.20;;;8.07;;
15102;SDS011;7652;53.584;9.998;2023-06-19T10:50:14;9.53;;;8.73;;
15102;SDS011;7652;53.584;9.998;2023-06-19T10:53:36;9.27;;;8.37;;
15102;SDS011;7652;53.584;9.998;2023-06-19T10:57:03;9.87;;;8.87;;
15102;SDS011;7652;53.584;9.998;2023-06-19T11:00:25;9.33;;;8.50;;
15102;SDS011;7652;53.584;9.998;2023-06-19T11:03:48;9.53;;;8.63;;
15102;SDS011;7652;53.584;9.998;2023-06-19T11:07:11;9.47;;;8.67;;
15102;SDS011;7652;53.584;9.998;2023-06-19T11:10:33;9.20;;;8.37;;
15102;SDS011;7652;53.584;9.998;2023-06-19T11:13:55;8.83;;;8.13;;
15102;SDS011;7652;53.584;9.998;2023-06-19T11:17:17;9.67;;;8.67;;
15102;SDS011;7652;53.584;9.998;2023-06-19T11:20:45;8.20;;;7.50;;
15102;SDS011;7652;53.584;9.998;2023-06-19T11:24:10;8.67;;;7.93;;
15102;SDS011;7652;53.584;9.998;2023-06-19T11:27:33;8.90;;;7.60;;
15102;SDS011;7652;53.584;9.998;2023-06-19T11:31:00;7.17;;;6.67;;
15102;SDS011;7652;53.584;9.998;2023-06-19T11:34:30;7.47;;;6.87;;
15102;SDS011;7652;53.584;9.998;2023-06-19T11:37:52;7.40;;;6.73;;
15102;SDS011;7652;53.584;9.998;2023-06-19T11:41:14;8.97;;;7.33;;
15102;SDS011;7652;53.584;9.998;2023-06-19T11:44:52;7.13;;;6.53;;
15102;SDS011;7652;53.584;9.998;2023-06-19T11:48:22;6.87;;;6.27;;
15102;SDS011;7652;53.584;9.998;2023-06-19T11:51:44;7.37;;;6.77;;
15102;SDS011;7652;53.584;9.998;2023-06-19T11:55:06;6.63;;;6.13;;
15102;SDS011;7652;53.584;9.998;2023-06-19T11:58:28;6.87;;;6.17;;
15102;SDS011;7652;53.584;9.998;2023-06-19T12:01:49;6.73;;;5.93;;
15102;SDS011;7652;53.584;9.998;2023-06-19T12:05:12;6.50;;;6.00;;
15102;SDS011;7652;53.584;9.998;2023-06-19T12:08:34;6.87;;;5.63;;
15102;SDS011;7652;53.584;9.998;2023-06-19T12:11:56;6.40;;;5.90;;
15102;SDS011;7652;53.584;9.998;2023-06-19T12:15:18;6.00;;;5.50;;
15102;SDS011;7652;53.584;9.998;2023-06-19T12:18:39;6.23;;;5.73;;
15102;SDS011;7652;53.584;9.998;2023-06-19T12:22:03;5.93;;;5.40;;
15102;SDS011;7652;53.584;9.998;2023-06-19T12:25:24;6.30;;;5.77;;
15102;SDS011;7652;53.584;9.998;2023-06-19T12:28:46;6.30;;;5.70;;
15102;SDS011;7652;53.584;9.998;2023-06-19T12:32:09;6.13;;;5.67;;
15102;SDS011;7652;53.584;9.998;2023-06-19T12:35:31;5.70;;;5.07;;
15102;SDS011;7652;53.584;9.998;2023-06-19T12:38:53;5.80;;;5.40;;
15102;SDS011;7652;53.584;9.998;2023-06-19T12:42:15;6.30;;;5.73;;
15102;SDS011;7652;53.584;9.998;2023-06-19T12:45:36;5.77;;;5.27;;
15102;SDS011;7652;53.584;9.998;2023-06-19T12:48:57;5.67;;;5.27;;
15102;SDS011;7652;53.584;9.998;2023-06-19T12:52:19;5.57;;;5.07;;
15102;SDS011;7652;53.584;9.998;2023-06-19T12:55:41;5.27;;;4.87;;
15102;SDS011;7652;53.584;9.998;2023-06-19T12:59:20;5.37;;;4.87;;
15102;SDS011;7652;53.584;9.998;2023-06-19T13:02:41;6.40;;;5.33;;
15102;SDS011;7652;53.584;9.998;2023-06-19T13:06:03;5.43;;;5.03;;
15102;SDS011;7652;53.584;9.998;2023-06-19T13:09:24;6.00;;;5.50;;
15102;SDS011;7652;53.584;9.998;2023-06-19T13:12:47;5.60;;;5.07;;
15102;SDS011;7652;53.584;9.998;2023-06-19T13:16:09;5.67;;;5.10;;
15102;SDS011;7652;53.584;9.998;2023-06-19T13:19:34;6.20;;;5.07;;
15102;SDS011;7652;53.584;9.998;2023-06-19T13:22:55;4.83;;;4.47;;
15102;SDS011;7652;53.584;9.998;2023-06-19T13:26:17;4.33;;;3.93;;
15102;SDS011;7652;53.584;9.998;2023-06-19T13:29:40;4.57;;;4.17;;
15102;SDS011;7652;53.584;9.998;2023-06-19T13:33:01;4.50;;;4.10;;
15102;SDS011;7652;53.584;9.998;2023-06-19T13:36:24;5.50;;;5.10;;
15102;SDS011;7652;53.584;9.998;2023-06-19T13:39:46;5.23;;;4.73;;
15102;SDS011;7652;53.584;9.998;2023-06-19T13:43:08;4.50;;;4.10;;
15102;SDS011;7652;53.584;9.998;2023-06-19T13:46:31;5.20;;;4.80;;
15102;SDS011;7652;53.584;9.998;2023-06-19T13:49:53;4.97;;;4.47;;
15102;SDS011;7652;53.584;9.998;2023-06-19T13:53:15;4.73;;;4.33;;
15102;SDS011;7652;53.584;9.998;2023-06-19T13:56:36;4.77;;;4.27;;
15102;SDS011;7652;53.584;9.998;2023-06-19T13:59:58;5.53;;;4.17;;
15102;SDS011;7652;53.584;9.998;2023-06-19T14:03:20;4.77;;;4.37;;
15102;SDS011;7652;53.584;9.998;2023-06-19T14:06:44;4.50;;;4.10;;
15102;SDS011;7652;53.584;9.998;2023-06-19T14:10:06;5.83;;;4.20;;
15102;SDS011;7652;53.584;9.998;2023-06-19T14:13:28;5.40;;;4.90;;
15102;SDS011;7652;53.584;9.998;2023-06-19T14:16:49;3.97;;;3.67;;
15102;SDS011;7652;53.584;9.998;2023-06-19T14:20:12;4.70;;;4.13;;
15102;SDS011;7652;53.584;9.998;2023-06-19T14:23:34;5.60;;;3.90;;
15102;SDS011;7652;53.584;9.998;2023-06-19T14:27:00;4.30;;;4.00;;
15102;SDS011;7652;53.584;9.998;2023-06-19T14:30:21;3.60;;;3.40;;
15102;SDS011;7652;53.584;9.998;2023-06-19T14:33:43;4.13;;;3.83;;
15102;SDS011;7652;53.584;9.998;2023-06-19T14:37:06;4.77;;;4.00;;
15102;SDS011;7652;53.584;9.998;2023-06-19T14:40:27;4.03;;;3.57;;
15102;SDS011;7652;53.584;9.998;2023-06-19T14:43:49;5.13;;;3.60;;
15102;SDS011;7652;53.584;9.998;2023-06-19T14:47:10;5.13;;;4.00;;
15102;SDS011;7652;53.584;9.998;2023-06-19T14:50:34;3.87;;;3.57;;
15102;SDS011;7652;53.584;9.998;2023-06-19T14:53:57;4.20;;;3.80;;
15102;SDS011;7652;53.584;9.998;2023-06-19T14:57:18;5.43;;;3.97;;
15102;SDS011;7652;53.584;9.998;2023-06-19T15:00:39;4.67;;;4.27;;
15102;SDS011;7652;53.584;9.998;2023-06-19T15:04:01;4.00;;;3.70;;
15102;SDS011;7652;53.584;9.998;2023-06-19T15:07:23;4.40;;;3.50;;
15102;SDS011;7652;53.584;9.998;2023-06-19T15:10:46;3.93;;;3.63;;
15102;SDS011;7652;53.584;9.998;2023-06-19T15:14:08;4.60;;;3.93;;
15102;SDS011;7652;53.584;9.998;2023-06-19T15:17:29;4.17;;;3.77;;
15102;SDS011;7652;53.584;9.998;2023-06-19T15:20:51;4.07;;;3.77;;
15102;SDS011;7652;53.584;9.998;2023-06-19T15:24:12;5.40;;;4.20;;
15102;SDS011;7652;53.584;9.998;2023-06-19T15:27:35;4.07;;;3.77;;
15102;SDS011;7652;53.584;9.998;2023-06-19T15:30:57;4.80;;;4.40;;
15102;SDS011;7652;53.584;9.998;2023-06-19T15:34:18;4.17;;;3.77;;
15102;SDS011;7652;53.584;9.998;2023-06-19T15:37:39;6.17;;;3.63;;
15102;SDS011;7652;53.584;9.998;2023-06-19T15:41:01;4.03;;;3.73;;
15102;SDS011;7652;53.584;9.998;2023-06-19T15:44:24;5.63;;;4.17;;
15102;SDS011;7652;53.584;9.998;2023-06-19T15:47:45;6.17;;;4.63;;
15102;SDS011;7652;53.584;9.998;2023-06-19T15:51:07;4.27;;;3.87;;
15102;SDS011;7652;53.584;9.998;2023-06-19T15:54:29;4.77;;;4.40;;
15102;SDS011;7652;53.584;9.998;2023-06-19T15:57:51;4.93;;;4.27;;
15102;SDS011;7652;53.584;9.998;2023-06-19T16:01:14;5.20;;;4.70;;
15102;SDS011;7652;53.584;9.998;2023-06-19T16:04:35;4.87;;;4.37;;
15102;SDS011;7652;53.584;9.998;2023-06-19T16:07:58;4.50;;;4.20;;
15102;SDS011;7652;53.584;9.998;2023-06-19T16:11:19;4.30;;;3.90;;
15102;SDS011;7652;53.584;9.998;2023-06-19T16:14:41;5.50;;;4.03;;
15102;SDS011;7652;53.584;9.998;2023-06-19T16:18:04;4.07;;;3.73;;
15102;SDS011;7652;53.584;9.998;2023-06-19T16:21:25;5.03;;;4.53;;
15102;SDS011;7652;53.584;9.998;2023-06-19T16:24:47;4.33;;;4.03;;
15102;SDS011;7652;53.584;9.998;2023-06-19T16:28:09;4.50;;;4.10;;
15102;SDS011;7652;53.584;9.998;2023-06-19T16:31:30;4.80;;;3.77;;
15102;SDS011;7652;53.584;9.998;2023-06-19T16:34:54;4.27;;;3.87;;
15102;SDS011;7652;53.584;9.998;2023-06-19T16:38:15;4.00;;;3.60;;
15102;SDS011;7652;53.584;9.998;2023-06-19T16:41:36;4.83;;;4.13;;
15102;SDS011;7652;53.584;9.998;2023-06-19T16:44:58;3.43;;;3.13;;
15102;SDS011;7652;53.584;9.998;2023-06-19T16:48:19;3.83;;;3.53;;
15102;SDS011;7652;53.584;9.998;2023-06-19T16:51:42;6.13;;;4.63;;
15102;SDS011;7652;53.584;9.998;2023-06-19T16:55:04;6.60;;;4.40;;
15102;SDS011;7652;53.584;9.998;2023-06-19T16:58:25;4.80;;;3.97;;
15102;SDS011;7652;53.584;9.998;2023-06-19T17:01:47;3.93;;;3.63;;
15102;SDS011;7652;53.584;9.998;2023-06-19T17:05:09;5.00;;;4.60;;
15102;SDS011;7652;53.584;9.998;2023-06-19T17:08:31;4.97;;;4.57;;
15102;SDS011;7652;53.584;9.998;2023-06-19T17:11:53;6.80;;;3.90;;
15102;SDS011;7652;53.584;9.998;2023-06-19T17:15:15;4.27;;;3.87;;
15102;SDS011;7652;53.584;9.998;2023-06-19T17:18:37;5.23;;;3.77;;
15102;SDS011;7652;53.584;9.998;2023-06-19T17:21:58;3.90;;;3.60;;
15102;SDS011;7652;53.584;9.998;2023-06-19T17:25:21;3.87;;;3.57;;
15102;SDS011;7652;53.584;9.998;2023-06-19T17:28:43;3.80;;;3.50;;
15102;SDS011;7652;53.584;9.998;2023-06-19T17:32:05;3.80;;;3.50;;
15102;SDS011;7652;53.584;9.998;2023-06-19T17:35:28;5.63;;;3.97;;
15102;SDS011;7652;53.584;9.998;2023-06-19T17:38:49;3.93;;;3.50;;
15102;SDS011;7652;53.584;9.998;2023-06-19T17:42:12;3.57;;;3.27;;
15102;SDS011;7652;53.584;9.998;2023-06-19T17:45:33;4.60;;;4.20;;
15102;SDS011;7652;53.584;9.998;2023-06-19T17:48:54;4.67;;;4.03;;
15102;SDS011;7652;53.584;9.998;2023-06-19T17:52:16;4.97;;;4.60;;
15102;SDS011;7652;53.584;9.998;2023-06-19T17:55:37;4.83;;;4.40;;
15102;SDS011;7652;53.584;9.998;2023-06-19T17:59:02;5.60;;;5.10;;
15102;SDS011;7652;53.584;9.998;2023-06-19T18:02:23;5.53;;;5.03;;
15102;SDS011;7652;53.584;9.998;2023-06-19T18:05:45;6.17;;;5.60;;
15102;SDS011;7652;53.584;9.998;2023-06-19T18:09:07;4.67;;;4.30;;
15102;SDS011;7652;53.584;9.998;2023-06-19T18:12:28;5.00;;;4.60;;
15102;SDS011;7652;53.584;9.998;2023-06-19T18:15:51;5.83;;;5.30;;
15102;SDS011;7652;53.584;9.998;2023-06-19T18:19:31;5.23;;;4.80;;
15102;SDS011;7652;53.584;9.998;2023-06-19T18:22:52;5.07;;;4.67;;
15102;SDS011;7652;53.584;9.998;2023-06-19T18:26:14;5.57;;;5.17;;
15102;SDS011;7652;53.584;9.998;2023-06-19T18:29:35;5.20;;;4.70;;
15102;SDS011;7652;53.584;9.998;2023-06-19T18:32:58;5.37;;;4.87;;
15102;SDS011;7652;53.584;9.998;2023-06-19T18:36:19;5.07;;;4.67;;
15102;SDS011;7652;53.584;9.998;2023-06-19T18:39:41;5.43;;;4.50;;
15102;SDS011;7652;53.584;9.998;2023-06-19T18:43:02;5.43;;;4.63;;
15102;SDS011;7652;53.584;9.998;2023-06-19T18:46:24;5.13;;;4.63;;
15102;SDS011;7652;53.584;9.998;2023-06-19T18:49:47;5.03;;;4.63;;
15102;SDS011;7652;53.584;9.998;2023-06-19T18:53:09;4.67;;;4.27;;
15102;SDS011;7652;53.584;9.998;2023-06-19T18:56:31;4.47;;;4.07;;
15102;SDS011;7652;53.584;9.998;2023-06-19T18:59:52;6.10;;;4.73;;
15102;SDS011;7652;53.584;9.998;2023-06-19T19:03:14;5.17;;;4.37;;
15102;SDS011;7652;53.584;9.998;2023-06-19T19:06:38;4.80;;;4.40;;
15102;SDS011;7652;53.584;9.998;2023-06-19T19:10:00;5.43;;;4.77;;
15102;SDS011;7652;53.584;9.998;2023-06-19T19:13:21;5.60;;;5.10;;
15102;SDS011;7652;53.584;9.998;2023-06-19T19:16:43;6.33;;;5.37;;
15102;SDS011;7652;53.584;9.998;2023-06-19T19:20:05;6.07;;;5.07;;
15102;SDS011;7652;53.584;9.998;2023-06-19T19:23:30;5.20;;;4.67;;
15102;SDS011;7652;53.584;9.998;2023-06-19T19:26:51;5.30;;;4.80;;
15102;SDS011;7652;53.584;9.998;2023-06-19T19:30:13;8.33;;;5.03;;
15102;SDS011;7652;53.584;9.998;2023-06-19T19:33:35;5.63;;;5.07;;
15102;SDS011;7652;53.584;9.998;2023-06-19T19:36:57;5.27;;;4.67;;
15102;SDS011;7652;53.584;9.998;2023-06-19T19:40:20;5.50;;;4.90;;
15102;SDS011;7652;53.584;9.998;2023-06-19T19:43:41;7.73;;;5.27;;
15102;SDS011;7652;53.584;9.998;2023-06-19T19:47:03;6.37;;;5.00;;
15102;SDS011;7652;53.584;9.998;2023-06-19T19:50:25;7.23;;;5.17;;
15102;SDS011;7652;53.584;9.998;2023-06-19T19:53:47;7.83;;;5.03;;
15102;SDS011;7652;53.584;9.998;2023-06-19T19:57:10;5.83;;;5.20;;
15102;SDS011;7652;53.584;9.998;2023-06-19T20:00:32;5.97;;;5.37;;
15102;SDS011;7652;53.584;9.998;2023-06-19T20:03:53;7.37;;;5.80;;
15102;SDS011;7652;53.584;9.998;2023-06-19T20:07:15;6.43;;;5.80;;
15102;SDS011;7652;53.584;9.998;2023-06-19T20:10:36;5.60;;;5.10;;
15102;SDS011;7652;53.584;9.998;2023-06-19T20:13:59;6.00;;;5.30;;
15102;SDS011;7652;53.584;9.998;2023-06-19T20:17:20;6.10;;;5.17;;
15102;SDS011;7652;53.584;9.998;2023-06-19T20:20:43;5.93;;;5.33;;
15102;SDS011;7652;53.584;9.998;2023-06-19T20:24:04;7.97;;;5.30;;
15102;SDS011;7652;53.584;9.998;2023-06-19T20:27:26;7.43;;;5.50;;
15102;SDS011;7652;53.584;9.998;2023-06-19T20:30:49;8.07;;;5.93;;
15102;SDS011;7652;53.584;9.998;2023-06-19T20:34:10;8.43;;;5.87;;
15102;SDS011;7652;53.584;9.998;2023-06-19T20:37:32;6.50;;;5.90;;